CIN weather

Arthur N Neu Airport
Carroll, Iowa, United States

Public forecast

Using degrees Fahrenheit for public forecast. Weather courtesy of forecast.io.

METAR (pilot weather report)

Retrieved 2019/07/18 04:35 UTC (0 seconds ago):

KCIN 180435Z AUTO 14008KT 10SM CLR 24/24 A2974 RMK AO2

TAF (pilot weather forecast)

Forecast is more than 12 hours old.

Closest forecast is Fort Dodge Regional Airport, 40.3 nm (74.6 km) NE. Retrieved 2019/07/17 00:27 UTC (1 day ago):

TAF KFOD 172324Z 1800/1824 16007KT P6SM SCT250 FM180600 19008KT P6SM SCT250 WS020/21040KT FM181200 21010KT P6SM SKC FM181800 20012G19KT P6SM SKC